createdAt,value
2018-12-18T00:01:56.501Z,68.03
2018-12-18T00:04:25.089Z,62.67
2018-12-18T00:06:53.746Z,69.60
2018-12-18T00:09:22.076Z,63.70
2018-12-18T00:11:50.957Z,62.80
2018-12-18T00:14:19.569Z,54.20
2018-12-18T00:16:48.205Z,55.07
2018-12-18T00:19:16.893Z,55.80
2018-12-18T00:21:45.514Z,54.40
2018-12-18T00:24:14.181Z,57.63
2018-12-18T00:26:42.868Z,50.47
2018-12-18T00:29:11.142Z,47.17
2018-12-18T00:31:39.793Z,53.33
2018-12-18T00:34:08.430Z,49.57
2018-12-18T00:36:37.067Z,53.83
2018-12-18T00:39:08.846Z,62.00
2018-12-18T00:41:37.446Z,55.27
2018-12-18T00:44:06.090Z,53.27
2018-12-18T00:46:34.741Z,53.50
2018-12-18T00:49:03.376Z,54.50
2018-12-18T00:51:32.019Z,59.77
2018-12-18T00:54:00.653Z,51.33
2018-12-18T00:56:29.413Z,60.80
2018-12-18T00:58:58.082Z,62.07
2018-12-18T01:01:26.726Z,55.40
2018-12-18T01:03:55.362Z,64.20
2018-12-18T01:06:24.166Z,59.03
2018-12-18T01:08:52.821Z,56.60
2018-12-18T01:11:21.479Z,53.63
2018-12-18T01:13:50.141Z,58.77
2018-12-18T01:16:18.776Z,58.07
2018-12-18T01:18:47.374Z,54.80
2018-12-18T01:21:16.045Z,50.67
2018-12-18T01:23:44.374Z,57.63
2018-12-18T01:26:13.032Z,55.53
2018-12-18T01:28:41.742Z,51.70
2018-12-18T01:31:10.372Z,55.20
2018-12-18T01:33:38.957Z,43.03
2018-12-18T01:36:07.244Z,47.73
2018-12-18T01:38:35.924Z,48.83
2018-12-18T01:41:04.557Z,50.13
2018-12-18T01:43:33.218Z,51.77
2018-12-18T01:46:01.862Z,50.47
2018-12-18T01:48:30.516Z,53.53
2018-12-18T01:50:59.193Z,52.93
2018-12-18T01:53:27.858Z,46.83
2018-12-18T01:55:56.522Z,56.83
2018-12-18T01:58:25.125Z,63.10
2018-12-18T02:00:53.750Z,51.73
2018-12-18T02:03:22.494Z,57.20
2018-12-18T02:05:51.164Z,59.07
2018-12-18T02:08:19.782Z,61.27
2018-12-18T02:10:48.033Z,65.57
2018-12-18T02:13:16.614Z,57.13
2018-12-18T02:15:45.226Z,56.50
2018-12-18T02:18:13.991Z,55.43
2018-12-18T02:20:42.653Z,53.23
2018-12-18T02:23:11.267Z,55.17
2018-12-18T02:25:39.879Z,58.17
2018-12-18T02:28:08.186Z,54.13
2018-12-18T02:30:36.832Z,54.40
2018-12-18T02:33:05.491Z,57.87
2018-12-18T02:35:34.165Z,56.27
2018-12-18T02:38:02.905Z,53.67
2018-12-18T02:40:31.238Z,50.00
2018-12-18T02:42:59.858Z,56.40
2018-12-18T02:45:28.473Z,51.27
2018-12-18T02:47:57.078Z,50.13
2018-12-18T02:50:25.685Z,44.97
2018-12-18T02:52:54.305Z,48.33
2018-12-18T02:55:22.945Z,44.57
2018-12-18T02:57:51.883Z,50.13
2018-12-18T03:00:20.201Z,48.37
2018-12-18T03:02:48.540Z,43.43
2018-12-18T03:05:17.191Z,51.57
2018-12-18T03:07:45.819Z,48.90
2018-12-18T03:10:14.474Z,42.43
2018-12-18T03:12:43.291Z,43.60
2018-12-18T03:15:11.960Z,42.40
2018-12-18T03:17:40.610Z,43.97
2018-12-18T03:20:09.350Z,40.40
2018-12-18T03:22:37.954Z,38.43
2018-12-18T03:25:06.598Z,46.60
2018-12-18T03:27:35.253Z,50.73
2018-12-18T03:30:04.129Z,43.30
2018-12-18T03:32:37.783Z,43.63
2018-12-18T03:35:06.524Z,46.77
2018-12-18T03:37:35.112Z,48.07
2018-12-18T03:40:04.770Z,38.10
2018-12-18T03:42:33.419Z,46.47
2018-12-18T03:45:02.023Z,44.30
2018-12-18T03:47:30.718Z,42.43
2018-12-18T03:49:59.370Z,35.07
2018-12-18T03:52:27.996Z,39.83
2018-12-18T03:54:56.589Z,37.17
2018-12-18T03:57:25.347Z,38.63
2018-12-18T03:59:53.965Z,46.77
2018-12-18T04:02:22.714Z,36.73
2018-12-18T04:04:51.334Z,39.33
2018-12-18T04:07:19.975Z,40.50
2018-12-18T04:09:48.256Z,42.90
2018-12-18T04:12:23.927Z,40.60
2018-12-18T04:14:52.781Z,40.10
2018-12-18T04:17:21.387Z,37.10
2018-12-18T04:19:50.025Z,35.10
2018-12-18T04:22:18.641Z,34.20
2018-12-18T04:24:47.237Z,32.93
2018-12-18T04:27:15.862Z,32.53
2018-12-18T04:29:44.505Z,30.47
2018-12-18T04:32:13.122Z,29.33
2018-12-18T04:34:43.116Z,29.30
2018-12-18T04:37:12.139Z,32.73
2018-12-18T04:39:46.912Z,29.40
2018-12-18T04:42:15.210Z,31.77
2018-12-18T04:44:43.842Z,25.23
2018-12-18T04:47:12.483Z,34.77
2018-12-18T04:49:41.255Z,28.20
2018-12-18T04:52:09.536Z,29.70
2018-12-18T04:54:38.252Z,27.00
2018-12-18T04:57:07.807Z,28.67
2018-12-18T04:59:36.421Z,26.50
2018-12-18T05:02:05.151Z,32.13
2018-12-18T05:04:33.813Z,33.77
2018-12-18T05:07:02.523Z,30.60
2018-12-18T05:09:30.826Z,29.60
2018-12-18T05:11:59.458Z,32.47
2018-12-18T05:14:28.115Z,31.07
2018-12-18T05:16:56.763Z,31.43
2018-12-18T05:19:25.437Z,29.80
2018-12-18T05:21:54.082Z,24.23
2018-12-18T05:24:22.743Z,30.53
2018-12-18T05:26:51.369Z,29.10
2018-12-18T05:29:19.962Z,31.40
2018-12-18T05:31:48.232Z,29.70
2018-12-18T05:34:16.940Z,23.77
2018-12-18T05:36:45.634Z,27.90
2018-12-18T05:39:14.290Z,22.10
2018-12-18T05:41:42.947Z,27.37
2018-12-18T05:44:11.244Z,29.57
2018-12-18T05:46:39.905Z,25.20
2018-12-18T05:49:08.655Z,27.93
2018-12-18T05:51:37.326Z,23.73
2018-12-18T05:54:05.971Z,27.63
2018-12-18T05:56:34.228Z,24.27
2018-12-18T05:59:02.515Z,28.33
2018-12-18T06:01:31.269Z,26.70
2018-12-18T06:03:59.901Z,24.57
2018-12-18T06:06:28.531Z,31.13
2018-12-18T06:08:57.211Z,30.03
2018-12-18T06:11:25.856Z,22.57
2018-12-18T06:13:54.458Z,26.17
2018-12-18T06:16:23.068Z,23.80
2018-12-18T06:18:51.690Z,25.13
2018-12-18T06:21:20.305Z,28.40
2018-12-18T06:23:48.958Z,25.17
2018-12-18T06:26:17.601Z,22.40
2018-12-18T06:28:46.308Z,23.77
2018-12-18T06:31:14.992Z,20.83
2018-12-18T06:33:43.632Z,22.60
2018-12-18T06:36:12.327Z,21.97
2018-12-18T06:38:40.967Z,22.87
2018-12-18T06:41:09.606Z,25.87
2018-12-18T06:43:38.231Z,22.97
2018-12-18T06:46:06.898Z,23.80
2018-12-18T06:48:35.144Z,23.60
2018-12-18T06:51:03.958Z,21.40
2018-12-18T06:53:32.616Z,23.17
2018-12-18T06:56:01.213Z,23.40
2018-12-18T06:58:29.834Z,25.57
2018-12-18T07:00:58.462Z,26.20
2018-12-18T07:03:27.101Z,23.87
2018-12-18T07:05:55.773Z,20.93
2018-12-18T07:08:24.468Z,20.47
2018-12-18T07:11:07.407Z,21.83
2018-12-18T07:13:36.061Z,21.80
2018-12-18T07:16:04.707Z,20.90
2018-12-18T07:23:25.653Z,21.60
2018-12-18T07:25:54.286Z,25.03
2018-12-18T07:28:22.897Z,23.73
2018-12-18T07:30:51.690Z,26.63
2018-12-18T07:33:20.325Z,22.07
2018-12-18T07:35:49.009Z,22.60
2018-12-18T07:38:17.671Z,23.30
2018-12-18T07:40:46.358Z,25.00
2018-12-18T07:43:14.657Z,25.30
2018-12-18T07:45:43.326Z,28.97
2018-12-18T07:48:11.985Z,23.87
2018-12-18T07:50:40.770Z,27.57
2018-12-18T07:53:09.387Z,22.70
2018-12-18T07:55:38.113Z,23.87
2018-12-18T07:58:06.714Z,29.30
2018-12-18T08:00:35.334Z,29.37
2018-12-18T08:03:03.988Z,23.47
2018-12-18T08:05:32.614Z,29.43
2018-12-18T08:08:01.306Z,24.90
2018-12-18T08:10:29.963Z,24.47
2018-12-18T08:12:58.588Z,22.27
2018-12-18T08:15:27.194Z,20.23
2018-12-18T08:17:55.837Z,20.13
2018-12-18T08:20:26.034Z,21.17
2018-12-18T08:22:54.761Z,22.73
2018-12-18T08:25:23.410Z,19.30
2018-12-18T08:27:52.101Z,21.13
2018-12-18T08:30:20.721Z,18.80
2018-12-18T08:32:49.348Z,15.87
2018-12-18T08:35:17.979Z,18.37
2018-12-18T08:37:46.659Z,16.90
2018-12-18T08:40:15.366Z,16.43
2018-12-18T08:42:44.037Z,18.60
2018-12-18T08:45:12.716Z,13.83
2018-12-18T08:47:41.346Z,14.23
2018-12-18T08:50:10.318Z,14.90
2018-12-18T08:52:38.954Z,13.43
2018-12-18T08:55:07.884Z,10.27
2018-12-18T08:57:36.556Z,12.33
2018-12-18T09:00:06.359Z,13.37
2018-12-18T09:02:35.006Z,12.27
2018-12-18T09:05:03.785Z,10.67
2018-12-18T09:07:32.461Z,9.07
2018-12-18T09:10:01.112Z,8.93
2018-12-18T09:12:29.758Z,11.17
2018-12-18T09:14:58.901Z,9.53
2018-12-18T09:17:32.599Z,10.87
2018-12-18T09:20:01.256Z,8.90
2018-12-18T09:22:29.873Z,11.40
2018-12-18T09:24:58.468Z,10.50
2018-12-18T09:27:27.124Z,9.43
2018-12-18T09:29:55.778Z,9.23
2018-12-18T09:32:24.385Z,10.07
2018-12-18T09:34:53.018Z,9.00
2018-12-18T09:37:21.672Z,8.97
2018-12-18T09:39:50.385Z,10.17
2018-12-18T09:42:24.362Z,8.97
2018-12-18T09:44:52.995Z,8.73
2018-12-18T09:47:21.757Z,10.33
2018-12-18T09:49:50.428Z,6.57
2018-12-18T09:52:19.105Z,8.97
2018-12-18T09:54:47.887Z,13.90
2018-12-18T09:57:21.765Z,6.13
2018-12-18T09:59:50.396Z,7.93
2018-12-18T10:02:19.077Z,6.57
2018-12-18T10:04:47.384Z,6.77
2018-12-18T10:07:16.001Z,6.80
2018-12-18T10:09:44.267Z,8.67
2018-12-18T10:12:15.405Z,7.27
2018-12-18T10:14:43.995Z,7.63
2018-12-18T10:17:12.659Z,9.13
2018-12-18T10:19:41.285Z,11.07
2018-12-18T10:22:09.914Z,11.83
2018-12-18T10:24:38.649Z,9.00
2018-12-18T10:27:07.052Z,5.93
2018-12-18T10:29:35.674Z,7.97
2018-12-18T10:32:04.290Z,6.10
2018-12-18T10:34:32.934Z,6.70
2018-12-18T10:37:01.567Z,8.07
2018-12-18T10:39:30.225Z,8.33
2018-12-18T10:41:58.874Z,6.53
2018-12-18T10:44:27.506Z,6.83
2018-12-18T10:46:56.130Z,13.47
2018-12-18T10:49:24.801Z,6.73
2018-12-18T10:51:53.440Z,24.80
2018-12-18T10:54:22.073Z,13.47
2018-12-18T10:56:50.359Z,22.77
2018-12-18T10:59:19.005Z,14.57
2018-12-18T11:01:48.393Z,13.43
2018-12-18T11:04:17.026Z,12.10
2018-12-18T11:06:45.629Z,6.80
2018-12-18T11:09:14.250Z,8.60
2018-12-18T11:11:42.664Z,9.77
2018-12-18T11:14:11.282Z,6.67
2018-12-18T11:16:39.883Z,7.83
2018-12-18T11:19:08.188Z,7.13
2018-12-18T11:21:36.840Z,7.67
2018-12-18T11:24:05.517Z,5.20
2018-12-18T11:26:34.494Z,8.03
2018-12-18T11:29:06.925Z,7.80
2018-12-18T11:31:35.583Z,4.67
2018-12-18T11:34:04.283Z,7.33
2018-12-18T11:36:33.034Z,9.57
2018-12-18T11:39:01.658Z,7.50
2018-12-18T11:41:30.258Z,6.47
2018-12-18T11:43:58.529Z,6.40
2018-12-18T11:46:27.163Z,7.57
2018-12-18T11:48:56.419Z,7.63
2018-12-18T11:51:24.676Z,4.03
2018-12-18T11:53:53.294Z,23.93
2018-12-18T11:57:24.491Z,12.30
2018-12-18T11:59:53.120Z,6.30
2018-12-18T12:02:21.777Z,7.93
2018-12-18T12:04:50.683Z,12.10
2018-12-18T12:07:19.136Z,7.23
2018-12-18T12:09:47.555Z,7.27
2018-12-18T12:12:16.185Z,5.57
2018-12-18T12:14:45.058Z,8.00
2018-12-18T12:17:13.663Z,9.57
2018-12-18T12:19:42.295Z,5.67
2018-12-18T12:22:10.911Z,4.17
2018-12-18T12:24:39.232Z,5.50
2018-12-18T12:27:12.839Z,10.03
2018-12-18T12:29:41.489Z,8.23
2018-12-18T12:32:10.104Z,4.70
2018-12-18T12:34:38.356Z,7.30
2018-12-18T12:37:06.589Z,4.37
2018-12-18T12:39:34.845Z,9.90
2018-12-18T12:42:03.142Z,6.07
2018-12-18T12:44:31.810Z,13.43
2018-12-18T12:47:00.397Z,10.03
2018-12-18T12:49:33.912Z,4.37
2018-12-18T12:52:02.153Z,6.03
2018-12-18T12:54:33.288Z,6.03
2018-12-18T12:57:01.974Z,5.33
2018-12-18T12:59:30.260Z,3.87
2018-12-18T13:01:58.899Z,5.77
2018-12-18T13:04:27.188Z,8.30
2018-12-18T13:06:55.549Z,4.90
2018-12-18T13:09:24.199Z,3.43
2018-12-18T13:11:52.828Z,4.77
2018-12-18T13:14:21.425Z,6.50
2018-12-18T13:16:49.733Z,6.63
2018-12-18T13:19:18.029Z,3.50
2018-12-18T13:21:46.682Z,5.57
2018-12-18T13:24:15.349Z,6.67
2018-12-18T13:26:43.950Z,6.23
2018-12-18T13:29:12.575Z,9.50
2018-12-18T13:31:40.868Z,4.60
2018-12-18T13:34:09.517Z,4.93
2018-12-18T13:36:43.019Z,9.37
2018-12-18T13:39:08.513Z,5.30
2018-12-18T13:41:37.159Z,7.70
2018-12-18T13:44:05.826Z,3.87
2018-12-18T13:46:34.494Z,6.97
2018-12-18T13:49:03.107Z,7.33
2018-12-18T13:51:31.399Z,5.63
2018-12-18T13:53:59.671Z,6.50
2018-12-18T13:56:28.014Z,12.87
2018-12-18T13:58:56.277Z,8.13
2018-12-18T14:01:24.541Z,17.40
2018-12-18T14:03:53.153Z,7.07
2018-12-18T14:06:21.791Z,8.10
2018-12-18T14:08:50.541Z,9.00
2018-12-18T14:11:18.839Z,9.97
2018-12-18T14:13:47.489Z,7.17
2018-12-18T14:16:15.810Z,7.67
2018-12-18T14:18:44.086Z,5.97
2018-12-18T14:21:12.711Z,6.00
2018-12-18T14:23:44.188Z,7.33
2018-12-18T14:26:14.955Z,5.53
2018-12-18T14:28:43.569Z,8.40
2018-12-18T14:31:16.088Z,6.13
2018-12-18T14:33:57.983Z,8.70
2018-12-18T14:36:26.567Z,9.17
2018-12-18T14:38:55.388Z,7.50
2018-12-18T14:41:24.312Z,9.47
2018-12-18T14:43:52.981Z,5.63
2018-12-18T14:46:21.579Z,5.53
2018-12-18T14:48:50.199Z,6.13
2018-12-18T14:51:18.446Z,7.23
2018-12-18T14:53:47.081Z,6.07
2018-12-18T14:56:15.742Z,7.23
2018-12-18T14:58:44.312Z,6.43
2018-12-18T15:01:12.874Z,7.57
2018-12-18T15:03:41.529Z,7.27
2018-12-18T15:06:10.142Z,6.23
2018-12-18T15:08:38.764Z,6.87
2018-12-18T15:11:07.435Z,6.10
2018-12-18T15:13:36.061Z,7.00
2018-12-18T15:16:04.676Z,8.97
2018-12-18T15:18:33.294Z,10.63
2018-12-18T15:21:01.894Z,7.87
2018-12-18T15:23:30.600Z,6.67
2018-12-18T15:25:59.212Z,6.07
2018-12-18T15:28:27.933Z,9.70
2018-12-18T15:30:56.565Z,6.77
2018-12-18T15:33:25.205Z,4.63
2018-12-18T15:35:53.942Z,8.00
2018-12-18T15:38:22.542Z,7.80
2018-12-18T15:40:51.489Z,5.53
2018-12-18T15:43:20.069Z,8.77
2018-12-18T15:45:48.669Z,8.33
2018-12-18T15:48:23.497Z,7.83
2018-12-18T15:50:52.405Z,10.23
2018-12-18T15:53:21.006Z,9.00
2018-12-18T15:55:49.622Z,9.30
2018-12-18T15:58:18.235Z,7.17
2018-12-18T16:00:46.838Z,10.13
2018-12-18T16:03:15.443Z,8.20
2018-12-18T16:05:58.680Z,8.17
2018-12-18T16:08:27.331Z,9.20
2018-12-18T16:10:55.966Z,9.57
2018-12-18T16:13:24.631Z,8.63
2018-12-18T16:15:53.250Z,14.60
2018-12-18T16:18:21.876Z,12.10
2018-12-18T16:20:50.471Z,8.80
2018-12-18T16:23:19.134Z,9.23
2018-12-18T16:25:47.445Z,10.47
2018-12-18T16:28:16.043Z,8.17
2018-12-18T16:30:44.606Z,6.63
2018-12-18T16:33:13.206Z,7.43
2018-12-18T16:35:46.108Z,7.83
2018-12-18T16:38:12.505Z,8.77
2018-12-18T16:40:41.197Z,9.80
2018-12-18T16:43:09.822Z,10.03
2018-12-18T16:45:38.457Z,7.57
2018-12-18T16:48:07.062Z,6.13
2018-12-18T16:50:35.686Z,10.40
2018-12-18T16:53:04.312Z,12.03
2018-12-18T16:55:32.930Z,17.00
2018-12-18T16:58:01.560Z,12.20
2018-12-18T17:00:30.182Z,14.03
2018-12-18T17:02:58.798Z,14.27
2018-12-18T17:05:27.445Z,12.20
2018-12-18T17:07:56.102Z,10.23
2018-12-18T17:10:24.713Z,15.60
2018-12-18T17:12:56.982Z,8.93
2018-12-18T17:15:25.945Z,9.07
2018-12-18T17:17:54.614Z,10.37
2018-12-18T17:20:23.246Z,8.83
2018-12-18T17:22:52.036Z,11.57
2018-12-18T17:25:20.721Z,9.50
2018-12-18T17:27:49.361Z,8.40
2018-12-18T17:30:17.958Z,10.90
2018-12-18T17:32:46.602Z,11.07
2018-12-18T17:35:15.333Z,9.67
2018-12-18T17:37:44.110Z,9.63
2018-12-18T17:40:12.754Z,7.83
2018-12-18T17:42:41.401Z,8.80
2018-12-18T17:45:09.683Z,13.37
2018-12-18T17:47:38.289Z,12.80
2018-12-18T17:50:08.693Z,11.87
2018-12-18T17:52:40.464Z,13.10
2018-12-18T17:55:09.123Z,9.53
2018-12-18T17:57:37.794Z,12.10
2018-12-18T18:00:06.918Z,9.57
2018-12-18T18:02:35.525Z,11.73
2018-12-18T18:05:04.417Z,11.03
2018-12-18T18:07:33.029Z,11.70
2018-12-18T18:10:01.702Z,17.00
2018-12-18T18:12:30.445Z,10.33
2018-12-18T18:14:59.176Z,10.67
2018-12-18T18:17:27.798Z,10.53
2018-12-18T18:19:56.426Z,14.93
2018-12-18T18:22:25.048Z,12.47
2018-12-18T18:24:53.689Z,18.67
2018-12-18T18:27:21.952Z,11.60
2018-12-18T18:29:50.605Z,13.00
2018-12-18T18:32:19.226Z,10.83
2018-12-18T18:34:47.834Z,11.83
2018-12-18T18:37:16.413Z,12.93
2018-12-18T18:39:45.028Z,16.97
2018-12-18T18:42:13.323Z,11.37
2018-12-18T18:44:42.009Z,14.07
2018-12-18T18:47:10.684Z,12.83
2018-12-18T18:49:39.346Z,11.30
2018-12-18T18:52:07.965Z,10.60
2018-12-18T18:54:36.545Z,10.37
2018-12-18T18:57:05.177Z,10.27
2018-12-18T18:59:33.778Z,9.50
2018-12-18T19:02:02.387Z,10.97
2018-12-18T19:04:31.305Z,10.83
2018-12-18T19:06:59.886Z,9.90
2018-12-18T19:09:28.565Z,13.07
2018-12-18T19:11:57.209Z,12.00
2018-12-18T19:14:25.827Z,10.53
2018-12-18T19:16:54.474Z,8.63
2018-12-18T19:19:22.735Z,8.40
2018-12-18T19:21:51.526Z,10.33
2018-12-18T19:24:20.153Z,8.37
2018-12-18T19:26:48.853Z,7.57
2018-12-18T19:29:17.470Z,6.93
2018-12-18T19:31:46.247Z,7.10
2018-12-18T19:34:14.913Z,8.20
2018-12-18T19:36:43.733Z,6.57
2018-12-18T19:39:12.362Z,8.17
2018-12-18T19:41:41.046Z,7.43
2018-12-18T19:44:09.632Z,6.20
2018-12-18T19:46:38.269Z,7.03
2018-12-18T19:49:06.902Z,6.03
2018-12-18T19:51:35.550Z,10.20
2018-12-18T19:54:04.230Z,6.17
2018-12-18T19:56:32.803Z,6.23
2018-12-18T19:59:01.430Z,5.27
2018-12-18T20:01:29.720Z,5.40
2018-12-18T20:03:58.086Z,8.30
2018-12-18T20:06:26.717Z,7.37
2018-12-18T20:08:55.331Z,9.30
2018-12-18T20:11:23.630Z,7.57
2018-12-18T20:13:52.296Z,7.92
2018-12-18T20:16:20.958Z,6.77
2018-12-18T20:18:49.822Z,6.90
2018-12-18T20:21:18.468Z,8.13
2018-12-18T20:23:46.755Z,6.67
2018-12-18T20:26:15.553Z,11.60
2018-12-18T20:28:43.838Z,9.97
2018-12-18T20:31:12.473Z,10.20
2018-12-18T20:33:41.070Z,7.90
2018-12-18T20:36:09.674Z,6.43
2018-12-18T20:38:38.306Z,12.10
2018-12-18T20:41:07.538Z,8.53
2018-12-18T20:43:36.153Z,9.43
2018-12-18T20:46:04.803Z,7.80
2018-12-18T20:48:33.400Z,5.57
2018-12-18T20:51:02.002Z,7.53
2018-12-18T20:53:30.635Z,9.10
2018-12-18T20:55:59.281Z,8.23
2018-12-18T20:58:27.901Z,6.93
2018-12-18T21:00:56.553Z,8.73
2018-12-18T21:03:25.208Z,10.43
2018-12-18T21:05:54.025Z,7.97
2018-12-18T21:08:23.562Z,8.77
2018-12-18T21:10:52.993Z,7.77
2018-12-18T21:13:26.936Z,9.27
2018-12-18T21:15:55.239Z,6.60
2018-12-18T21:18:23.809Z,7.60
2018-12-18T21:20:52.570Z,11.70
2018-12-18T21:23:21.263Z,7.70
2018-12-18T21:25:49.949Z,6.60
2018-12-18T21:28:18.553Z,8.50
2018-12-18T21:30:47.169Z,7.60
2018-12-18T21:33:15.929Z,6.53
2018-12-18T21:35:44.544Z,6.47
2018-12-18T21:38:13.168Z,7.87
2018-12-18T21:40:43.136Z,8.37
2018-12-18T21:43:11.922Z,10.80
2018-12-18T21:45:42.090Z,6.47
2018-12-18T21:48:12.154Z,8.67
2018-12-18T21:50:42.442Z,9.10
2018-12-18T21:53:12.182Z,7.50
2018-12-18T21:55:40.811Z,10.83
2018-12-18T21:58:09.390Z,10.23
2018-12-18T22:00:38.077Z,6.07
2018-12-18T22:03:06.748Z,7.50
2018-12-18T22:05:35.377Z,5.80
2018-12-18T22:08:04.013Z,9.10
2018-12-18T22:10:32.632Z,8.00
2018-12-18T22:13:01.259Z,7.83
2018-12-18T22:15:29.904Z,7.87
2018-12-18T22:17:58.560Z,6.60
2018-12-18T22:20:27.154Z,7.83
2018-12-18T22:22:55.434Z,6.50
2018-12-18T22:25:23.725Z,7.10
2018-12-18T22:27:52.588Z,8.30
2018-12-18T22:30:21.479Z,5.83
2018-12-18T22:32:49.919Z,6.50
2018-12-18T22:35:18.518Z,7.90
2018-12-18T22:37:46.798Z,9.47
2018-12-18T22:40:15.065Z,10.60
2018-12-18T22:42:43.366Z,9.97
2018-12-18T22:45:11.638Z,6.20
2018-12-18T22:47:40.336Z,9.20
2018-12-18T22:50:09.195Z,8.27
2018-12-18T22:52:37.431Z,7.57
2018-12-18T22:55:06.243Z,8.00
2018-12-18T22:57:34.857Z,9.37
2018-12-18T23:00:05.142Z,11.97
2018-12-18T23:02:33.729Z,8.17
2018-12-18T23:05:02.393Z,9.77
2018-12-18T23:07:31.061Z,11.40
2018-12-18T23:09:59.715Z,9.83
2018-12-18T23:12:28.380Z,8.80
2018-12-18T23:14:56.993Z,10.70
2018-12-18T23:17:25.633Z,7.40
2018-12-18T23:19:54.231Z,8.37
2018-12-18T23:22:22.857Z,9.67
2018-12-18T23:24:51.497Z,7.57
2018-12-18T23:27:20.098Z,7.93
2018-12-18T23:29:48.726Z,8.53
2018-12-18T23:32:17.345Z,10.03
2018-12-18T23:37:44.679Z,10.70
2018-12-18T23:40:13.317Z,8.30
2018-12-18T23:42:41.936Z,12.27
2018-12-18T23:45:10.781Z,8.60
2018-12-18T23:47:39.386Z,11.57
2018-12-18T23:50:07.672Z,11.73
2018-12-18T23:52:36.283Z,8.53
2018-12-18T23:55:05.301Z,7.77
2018-12-18T23:57:33.929Z,8.30
